sensor_id;sensor_type;location;lat;lon;timestamp;pressure;altitude;pressure_sealevel;temperature;humidity
33163;BME280;29282;45.656;11.302;2023-08-06T00:00:06;97367.28;;;24.16;59.46
33163;BME280;29282;45.656;11.302;2023-08-06T00:02:31;97369.25;;;24.15;59.54
33163;BME280;29282;45.656;11.302;2023-08-06T00:04:57;97360.94;;;24.15;59.28
33163;BME280;29282;45.656;11.302;2023-08-06T00:07:22;97365.28;;;24.17;59.50
33163;BME280;29282;45.656;11.302;2023-08-06T00:09:48;97370.03;;;24.16;59.73
33163;BME280;29282;45.656;11.302;2023-08-06T00:12:13;97367.28;;;24.16;59.41
33163;BME280;29282;45.656;11.302;2023-08-06T00:14:39;97363.72;;;24.15;59.32
33163;BME280;29282;45.656;11.302;2023-08-06T00:17:05;97359.75;;;24.17;59.14
33163;BME280;29282;45.656;11.302;2023-08-06T00:19:31;97355.41;;;24.15;59.51
33163;BME280;29282;45.656;11.302;2023-08-06T00:21:57;97356.22;;;24.16;59.35
33163;BME280;29282;45.656;11.302;2023-08-06T00:24:22;97347.13;;;24.15;59.35
33163;BME280;29282;45.656;11.302;2023-08-06T00:26:48;97350.66;;;24.16;59.29
33163;BME280;29282;45.656;11.302;2023-08-06T00:29:13;97349.47;;;24.17;59.43
33163;BME280;29282;45.656;11.302;2023-08-06T00:31:39;97347.91;;;24.16;59.41
33163;BME280;29282;45.656;11.302;2023-08-06T00:34:04;97336.84;;;24.16;59.54
33163;BME280;29282;45.656;11.302;2023-08-06T00:36:30;97335.25;;;24.15;59.43
33163;BME280;29282;45.656;11.302;2023-08-06T00:38:55;97332.50;;;24.15;59.44
33163;BME280;29282;45.656;11.302;2023-08-06T00:41:21;97333.28;;;24.15;59.17
33163;BME280;29282;45.656;11.302;2023-08-06T00:43:47;97331.28;;;24.16;59.35
33163;BME280;29282;45.656;11.302;2023-08-06T00:46:13;97335.25;;;24.15;59.21
33163;BME280;29282;45.656;11.302;2023-08-06T00:48:40;97346.72;;;24.17;59.35
33163;BME280;29282;45.656;11.302;2023-08-06T00:51:06;97340.78;;;24.15;59.32
33163;BME280;29282;45.656;11.302;2023-08-06T00:53:32;97334.06;;;24.16;59.19
33163;BME280;29282;45.656;11.302;2023-08-06T00:55:58;97326.16;;;24.14;59.60
33163;BME280;29282;45.656;11.302;2023-08-06T00:58:25;97328.53;;;24.16;59.16
33163;BME280;29282;45.656;11.302;2023-08-06T01:00:50;97329.72;;;24.15;59.22
33163;BME280;29282;45.656;11.302;2023-08-06T01:03:16;97328.53;;;24.16;59.27
33163;BME280;29282;45.656;11.302;2023-08-06T01:05:41;97315.88;;;24.15;59.25
33163;BME280;29282;45.656;11.302;2023-08-06T01:13:45;97312.34;;;24.14;59.54
33163;BME280;29282;45.656;11.302;2023-08-06T01:16:15;97315.88;;;24.15;59.22
33163;BME280;29282;45.656;11.302;2023-08-06T01:18:42;97313.13;;;24.15;59.32
33163;BME280;29282;45.656;11.302;2023-08-06T01:21:14;97304.81;;;24.15;59.25
33163;BME280;29282;45.656;11.302;2023-08-06T01:23:39;97306.81;;;24.14;59.44
33163;BME280;29282;45.656;11.302;2023-08-06T01:26:17;97304.81;;;24.15;59.06
33163;BME280;29282;45.656;11.302;2023-08-06T01:29:19;97304.03;;;24.14;59.14
33163;BME280;29282;45.656;11.302;2023-08-06T01:31:48;97303.25;;;24.14;59.54
33163;BME280;29282;45.656;11.302;2023-08-06T01:34:18;97306.81;;;24.14;59.28
33163;BME280;29282;45.656;11.302;2023-08-06T01:36:45;97298.50;;;24.14;59.39
33163;BME280;29282;45.656;11.302;2023-08-06T01:39:11;97300.06;;;24.15;59.29
33163;BME280;29282;45.656;11.302;2023-08-06T01:41:37;97298.50;;;24.14;59.53
33163;BME280;29282;45.656;11.302;2023-08-06T01:44:02;97293.75;;;24.15;59.24
33163;BME280;29282;45.656;11.302;2023-08-06T01:46:28;97294.94;;;24.14;59.45
33163;BME280;29282;45.656;11.302;2023-08-06T01:48:53;97295.72;;;24.14;59.15
33163;BME280;29282;45.656;11.302;2023-08-06T01:51:19;97299.28;;;24.15;59.32
33163;BME280;29282;45.656;11.302;2023-08-06T01:53:44;97292.97;;;24.14;59.48
33163;BME280;29282;45.656;11.302;2023-08-06T01:56:10;97278.34;;;24.14;59.41
33163;BME280;29282;45.656;11.302;2023-08-06T01:58:35;97279.50;;;24.13;59.20
33163;BME280;29282;45.656;11.302;2023-08-06T02:01:05;97273.97;;;24.13;59.21
33163;BME280;29282;45.656;11.302;2023-08-06T02:03:30;97275.56;;;24.14;59.21
33163;BME280;29282;45.656;11.302;2023-08-06T02:05:56;97277.53;;;24.13;59.30
33163;BME280;29282;45.656;11.302;2023-08-06T02:08:22;97275.56;;;24.14;59.29
33163;BME280;29282;45.656;11.302;2023-08-06T02:10:47;97276.38;;;24.14;59.34
33163;BME280;29282;45.656;11.302;2023-08-06T02:13:13;97275.56;;;24.14;59.24
33163;BME280;29282;45.656;11.302;2023-08-06T02:15:43;97274.75;;;24.13;59.11
33163;BME280;29282;45.656;11.302;2023-08-06T02:18:08;97272.00;;;24.13;59.29
33163;BME280;29282;45.656;11.302;2023-08-06T02:20:34;97267.28;;;24.14;58.98
33163;BME280;29282;45.656;11.302;2023-08-06T02:22:59;97262.91;;;24.13;59.39
33163;BME280;29282;45.656;11.302;2023-08-06T02:25:25;97271.22;;;24.13;59.27
33163;BME280;29282;45.656;11.302;2023-08-06T02:27:50;97266.47;;;24.13;59.27
33163;BME280;29282;45.656;11.302;2023-08-06T02:30:16;97269.22;;;24.13;59.17
33163;BME280;29282;45.656;11.302;2023-08-06T02:32:41;97274.75;;;24.13;59.27
33163;BME280;29282;45.656;11.302;2023-08-06T02:35:07;97276.38;;;24.14;59.24
33163;BME280;29282;45.656;11.302;2023-08-06T02:37:34;97279.13;;;24.14;59.20
33163;BME280;29282;45.656;11.302;2023-08-06T02:39:59;97273.97;;;24.13;59.10
33163;BME280;29282;45.656;11.302;2023-08-06T02:42:25;97279.50;;;24.13;59.37
33163;BME280;29282;45.656;11.302;2023-08-06T02:44:52;97271.22;;;24.13;59.18
33163;BME280;29282;45.656;11.302;2023-08-06T02:47:20;97262.91;;;24.13;59.30
33163;BME280;29282;45.656;11.302;2023-08-06T02:49:46;97258.16;;;24.13;59.23
33163;BME280;29282;45.656;11.302;2023-08-06T02:52:11;97251.84;;;24.13;59.20
33163;BME280;29282;45.656;11.302;2023-08-06T02:54:37;97248.28;;;24.12;59.33
33163;BME280;29282;45.656;11.302;2023-08-06T02:57:03;97251.47;;;24.11;59.10
33163;BME280;29282;45.656;11.302;2023-08-06T02:59:28;97245.50;;;24.12;59.25
33163;BME280;29282;45.656;11.302;2023-08-06T03:01:54;97243.53;;;24.13;59.38
33163;BME280;29282;45.656;11.302;2023-08-06T03:04:19;97232.88;;;24.11;59.19
33163;BME280;29282;45.656;11.302;2023-08-06T03:06:45;97237.22;;;24.12;59.26
33163;BME280;29282;45.656;11.302;2023-08-06T03:09:10;97241.97;;;24.12;59.02
33163;BME280;29282;45.656;11.302;2023-08-06T03:11:36;97252.25;;;24.11;59.15
33163;BME280;29282;45.656;11.302;2023-08-06T03:14:01;97245.50;;;24.12;59.04
33163;BME280;29282;45.656;11.302;2023-08-06T03:16:27;97247.50;;;24.12;59.11
33163;BME280;29282;45.656;11.302;2023-08-06T03:18:52;97239.97;;;24.12;59.19
33163;BME280;29282;45.656;11.302;2023-08-06T03:21:18;97233.66;;;24.12;58.98
33163;BME280;29282;45.656;11.302;2023-08-06T03:23:46;97221.81;;;24.11;58.90
33163;BME280;29282;45.656;11.302;2023-08-06T03:26:15;97216.28;;;24.11;59.19
33163;BME280;29282;45.656;11.302;2023-08-06T03:28:40;97209.94;;;24.11;58.98
33163;BME280;29282;45.656;11.302;2023-08-06T03:31:06;97208.34;;;24.10;59.23
33163;BME280;29282;45.656;11.302;2023-08-06T03:33:31;97217.44;;;24.10;59.10
33163;BME280;29282;45.656;11.302;2023-08-06T03:35:57;97216.28;;;24.11;59.13
33163;BME280;29282;45.656;11.302;2023-08-06T03:38:25;97228.13;;;24.12;59.07
33163;BME280;29282;45.656;11.302;2023-08-06T03:40:51;97227.34;;;24.11;59.00
33163;BME280;29282;45.656;11.302;2023-08-06T03:43:17;97227.34;;;24.11;59.26
33163;BME280;29282;45.656;11.302;2023-08-06T03:45:42;97227.34;;;24.11;59.09
33163;BME280;29282;45.656;11.302;2023-08-06T03:48:08;97229.31;;;24.11;59.09
33163;BME280;29282;45.656;11.302;2023-08-06T03:50:34;97237.22;;;24.12;59.05
33163;BME280;29282;45.656;11.302;2023-08-06T03:52:59;97244.72;;;24.12;59.18
33163;BME280;29282;45.656;11.302;2023-08-06T03:55:28;97245.94;;;24.11;59.13
33163;BME280;29282;45.656;11.302;2023-08-06T03:57:53;97245.13;;;24.10;59.17
33163;BME280;29282;45.656;11.302;2023-08-06T04:00:21;97245.94;;;24.11;59.08
33163;BME280;29282;45.656;11.302;2023-08-06T04:02:47;97241.97;;;24.12;58.93
33163;BME280;29282;45.656;11.302;2023-08-06T04:05:13;97242.34;;;24.10;59.09
33163;BME280;29282;45.656;11.302;2023-08-06T04:07:38;97247.88;;;24.10;59.25
33163;BME280;29282;45.656;11.302;2023-08-06T04:10:04;97253.41;;;24.10;58.98
33163;BME280;29282;45.656;11.302;2023-08-06T04:12:30;97253.41;;;24.10;59.22
33163;BME280;29282;45.656;11.302;2023-08-06T04:15:00;97254.22;;;24.11;59.18
33163;BME280;29282;45.656;11.302;2023-08-06T04:17:25;97245.13;;;24.10;59.14
33163;BME280;29282;45.656;11.302;2023-08-06T04:19:52;97249.88;;;24.10;59.00
33163;BME280;29282;45.656;11.302;2023-08-06T04:22:21;97248.28;;;24.09;59.03
33163;BME280;29282;45.656;11.302;2023-08-06T04:24:47;97245.53;;;24.09;59.05
33163;BME280;29282;45.656;11.302;2023-08-06T04:27:14;97252.63;;;24.10;59.20
33163;BME280;29282;45.656;11.302;2023-08-06T04:29:40;97243.53;;;24.09;59.14
33163;BME280;29282;45.656;11.302;2023-08-06T04:32:07;97247.09;;;24.10;59.04
33163;BME280;29282;45.656;11.302;2023-08-06T04:34:34;97252.63;;;24.10;59.15
33163;BME280;29282;45.656;11.302;2023-08-06T04:37:00;97250.66;;;24.10;58.89
33163;BME280;29282;45.656;11.302;2023-08-06T04:39:25;97249.88;;;24.10;58.96
33163;BME280;29282;45.656;11.302;2023-08-06T04:41:51;97249.06;;;24.09;58.90
33163;BME280;29282;45.656;11.302;2023-08-06T04:44:17;97254.59;;;24.09;59.03
33163;BME280;29282;45.656;11.302;2023-08-06T04:46:42;97248.28;;;24.09;59.05
33163;BME280;29282;45.656;11.302;2023-08-06T04:49:07;97252.63;;;24.10;59.28
33163;BME280;29282;45.656;11.302;2023-08-06T04:51:33;97257.38;;;24.09;59.02
33163;BME280;29282;45.656;11.302;2023-08-06T04:53:58;97247.09;;;24.10;59.01
33163;BME280;29282;45.656;11.302;2023-08-06T04:56:24;97247.09;;;24.10;58.85
33163;BME280;29282;45.656;11.302;2023-08-06T04:58:50;97238.41;;;24.08;59.00
33163;BME280;29282;45.656;11.302;2023-08-06T05:01:16;97247.50;;;24.08;58.95
33163;BME280;29282;45.656;11.302;2023-08-06T05:03:41;97240.00;;;24.09;59.03
33163;BME280;29282;45.656;11.302;2023-08-06T05:06:07;97240.00;;;24.09;58.90
33163;BME280;29282;45.656;11.302;2023-08-06T05:08:32;97237.22;;;24.09;59.07
33163;BME280;29282;45.656;11.302;2023-08-06T05:10:58;97243.94;;;24.08;59.06
33163;BME280;29282;45.656;11.302;2023-08-06T05:13:23;97237.63;;;24.07;59.13
33163;BME280;29282;45.656;11.302;2023-08-06T05:15:50;97232.88;;;24.08;59.08
33163;BME280;29282;45.656;11.302;2023-08-06T05:18:19;97232.09;;;24.07;58.98
33163;BME280;29282;45.656;11.302;2023-08-06T05:20:44;97240.78;;;24.09;58.95
33163;BME280;29282;45.656;11.302;2023-08-06T05:23:10;97244.31;;;24.10;59.03
33163;BME280;29282;45.656;11.302;2023-08-06T05:25:35;97249.06;;;24.09;58.92
33163;BME280;29282;45.656;11.302;2023-08-06T05:28:02;97245.13;;;24.10;59.14
33163;BME280;29282;45.656;11.302;2023-08-06T05:30:27;97242.75;;;24.09;58.92
33163;BME280;29282;45.656;11.302;2023-08-06T05:32:53;97241.56;;;24.10;58.85
33163;BME280;29282;45.656;11.302;2023-08-06T05:35:21;97234.03;;;24.10;59.03
33163;BME280;29282;45.656;11.302;2023-08-06T05:37:47;97232.47;;;24.09;59.31
33163;BME280;29282;45.656;11.302;2023-08-06T05:40:13;97235.25;;;24.09;58.78
33163;BME280;29282;45.656;11.302;2023-08-06T05:42:40;97236.03;;;24.10;59.12
33163;BME280;29282;45.656;11.302;2023-08-06T05:45:06;97233.25;;;24.10;58.96
33163;BME280;29282;45.656;11.302;2023-08-06T05:47:32;97236.03;;;24.10;58.94
33163;BME280;29282;45.656;11.302;2023-08-06T05:49:57;97236.03;;;24.10;58.95
33163;BME280;29282;45.656;11.302;2023-08-06T05:52:23;97232.09;;;24.11;58.97
33163;BME280;29282;45.656;11.302;2023-08-06T05:54:48;97231.28;;;24.10;59.03
33163;BME280;29282;45.656;11.302;2023-08-06T05:57:14;97231.28;;;24.10;58.69
33163;BME280;29282;45.656;11.302;2023-08-06T05:59:40;97238.00;;;24.13;58.77
33163;BME280;29282;45.656;11.302;2023-08-06T06:02:06;97237.63;;;24.11;58.85
33163;BME280;29282;45.656;11.302;2023-08-06T06:04:31;97235.63;;;24.11;58.95
33163;BME280;29282;45.656;11.302;2023-08-06T06:06:57;97237.63;;;24.11;58.77
33163;BME280;29282;45.656;11.302;2023-08-06T06:09:22;97237.63;;;24.11;58.93
33163;BME280;29282;45.656;11.302;2023-08-06T06:11:50;97239.19;;;24.12;59.01
33163;BME280;29282;45.656;11.302;2023-08-06T06:14:17;97239.97;;;24.12;59.01
33163;BME280;29282;45.656;11.302;2023-08-06T06:16:43;97248.69;;;24.11;58.72
33163;BME280;29282;45.656;11.302;2023-08-06T06:19:08;97237.63;;;24.11;58.87
33163;BME280;29282;45.656;11.302;2023-08-06T06:21:34;97239.19;;;24.12;58.80
33163;BME280;29282;45.656;11.302;2023-08-06T06:23:59;97236.44;;;24.12;58.97
33163;BME280;29282;45.656;11.302;2023-08-06T06:26:25;97239.97;;;24.12;58.91
33163;BME280;29282;45.656;11.302;2023-08-06T06:28:50;97235.22;;;24.13;58.71
33163;BME280;29282;45.656;11.302;2023-08-06T06:31:16;97239.19;;;24.12;58.88
33163;BME280;29282;45.656;11.302;2023-08-06T06:33:41;97235.22;;;24.13;58.91
33163;BME280;29282;45.656;11.302;2023-08-06T06:36:07;97238.00;;;24.13;58.83
33163;BME280;29282;45.656;11.302;2023-08-06T06:38:36;97231.69;;;24.12;58.90
33163;BME280;29282;45.656;11.302;2023-08-06T06:41:01;97235.22;;;24.13;58.79
33163;BME280;29282;45.656;11.302;2023-08-06T06:43:28;97235.22;;;24.13;58.88
33163;BME280;29282;45.656;11.302;2023-08-06T06:45:58;97243.16;;;24.14;58.74
33163;BME280;29282;45.656;11.302;2023-08-06T06:48:31;97245.13;;;24.14;58.76
33163;BME280;29282;45.656;11.302;2023-08-06T06:50:57;97242.38;;;24.14;58.71
33163;BME280;29282;45.656;11.302;2023-08-06T06:53:23;97250.66;;;24.14;58.91
33163;BME280;29282;45.656;11.302;2023-08-06T06:55:53;97254.22;;;24.14;58.79
33163;BME280;29282;45.656;11.302;2023-08-06T06:58:19;97250.66;;;24.14;58.84
33163;BME280;29282;45.656;11.302;2023-08-06T07:00:45;97261.75;;;24.14;58.70
33163;BME280;29282;45.656;11.302;2023-08-06T07:03:11;97258.56;;;24.15;58.79
33163;BME280;29282;45.656;11.302;2023-08-06T07:05:36;97251.44;;;24.14;58.78
33163;BME280;29282;45.656;11.302;2023-08-06T07:08:02;97255.78;;;24.15;58.65
33163;BME280;29282;45.656;11.302;2023-08-06T07:10:27;97259.34;;;24.16;58.87
33163;BME280;29282;45.656;11.302;2023-08-06T07:12:53;97255.78;;;24.15;58.73
33163;BME280;29282;45.656;11.302;2023-08-06T07:15:19;97251.03;;;24.16;58.64
33163;BME280;29282;45.656;11.302;2023-08-06T07:17:45;97248.28;;;24.16;58.68
33163;BME280;29282;45.656;11.302;2023-08-06T07:20:10;97250.25;;;24.15;58.66
33163;BME280;29282;45.656;11.302;2023-08-06T07:22:36;97247.50;;;24.15;58.74
33163;BME280;29282;45.656;11.302;2023-08-06T07:25:02;97238.00;;;24.17;58.92
33163;BME280;29282;45.656;11.302;2023-08-06T07:27:27;97245.13;;;24.18;58.94
33163;BME280;29282;45.656;11.302;2023-08-06T07:29:53;97242.75;;;24.16;58.78
33163;BME280;29282;45.656;11.302;2023-08-06T07:32:19;97241.53;;;24.17;59.01
33163;BME280;29282;45.656;11.302;2023-08-06T07:34:44;97238.78;;;24.17;58.54
33163;BME280;29282;45.656;11.302;2023-08-06T07:37:10;97239.59;;;24.18;58.75
33163;BME280;29282;45.656;11.302;2023-08-06T07:39:35;97248.69;;;24.18;58.54
33163;BME280;29282;45.656;11.302;2023-08-06T07:42:03;97248.69;;;24.18;58.79
33163;BME280;29282;45.656;11.302;2023-08-06T07:44:31;97246.69;;;24.19;58.70
33163;BME280;29282;45.656;11.302;2023-08-06T07:46:56;97250.66;;;24.18;58.74
33163;BME280;29282;45.656;11.302;2023-08-06T07:49:22;97250.25;;;24.19;58.79
33163;BME280;29282;45.656;11.302;2023-08-06T07:51:47;97247.47;;;24.19;58.80
33163;BME280;29282;45.656;11.302;2023-08-06T07:54:13;97253.00;;;24.19;58.61
33163;BME280;29282;45.656;11.302;2023-08-06T07:56:38;97254.59;;;24.20;58.87
33163;BME280;29282;45.656;11.302;2023-08-06T07:59:04;97248.69;;;24.18;59.00
33163;BME280;29282;45.656;11.302;2023-08-06T08:01:29;97255.78;;;24.19;58.73
33163;BME280;29282;45.656;11.302;2023-08-06T08:03:55;97255.78;;;24.19;58.71
33163;BME280;29282;45.656;11.302;2023-08-06T08:06:20;97256.97;;;24.18;58.63
33163;BME280;29282;45.656;11.302;2023-08-06T08:08:46;97261.31;;;24.19;58.64
33163;BME280;29282;45.656;11.302;2023-08-06T08:11:13;97262.09;;;24.20;58.68
33163;BME280;29282;45.656;11.302;2023-08-06T08:13:39;97261.31;;;24.19;58.79
33163;BME280;29282;45.656;11.302;2023-08-06T08:16:08;97263.31;;;24.19;58.71
33163;BME280;29282;45.656;11.302;2023-08-06T08:18:33;97262.50;;;24.18;58.82
33163;BME280;29282;45.656;11.302;2023-08-06T08:20:59;97259.75;;;24.18;58.79
33163;BME280;29282;45.656;11.302;2023-08-06T08:23:24;97260.53;;;24.19;58.63
33163;BME280;29282;45.656;11.302;2023-08-06T08:25:50;97258.56;;;24.19;58.77
33163;BME280;29282;45.656;11.302;2023-08-06T08:28:15;97251.44;;;24.18;58.76
33163;BME280;29282;45.656;11.302;2023-08-06T08:30:41;97259.75;;;24.18;58.64
33163;BME280;29282;45.656;11.302;2023-08-06T08:33:07;97261.72;;;24.18;58.90
33163;BME280;29282;45.656;11.302;2023-08-06T08:35:33;97259.75;;;24.18;58.90
33163;BME280;29282;45.656;11.302;2023-08-06T08:37:59;97261.72;;;24.18;58.74
33163;BME280;29282;45.656;11.302;2023-08-06T08:40:32;97263.31;;;24.19;58.91
33163;BME280;29282;45.656;11.302;2023-08-06T08:43:02;97268.06;;;24.18;58.63
33163;BME280;29282;45.656;11.302;2023-08-06T08:45:34;97274.38;;;24.19;58.95
33163;BME280;29282;45.656;11.302;2023-08-06T08:48:04;97281.88;;;24.18;58.98
33163;BME280;29282;45.656;11.302;2023-08-06T08:50:30;97282.69;;;24.19;58.92
33163;BME280;29282;45.656;11.302;2023-08-06T08:52:56;97271.97;;;24.17;58.81
33163;BME280;29282;45.656;11.302;2023-08-06T08:55:22;97275.56;;;24.18;59.02
33163;BME280;29282;45.656;11.302;2023-08-06T08:57:48;97281.88;;;24.18;58.89
33163;BME280;29282;45.656;11.302;2023-08-06T09:00:13;97281.09;;;24.18;58.93
33163;BME280;29282;45.656;11.302;2023-08-06T09:02:43;97289.78;;;24.20;58.76
33163;BME280;29282;45.656;11.302;2023-08-06T09:05:09;97286.63;;;24.18;58.65
33163;BME280;29282;45.656;11.302;2023-08-06T09:07:41;97291.75;;;24.19;58.97
33163;BME280;29282;45.656;11.302;2023-08-06T09:10:10;97290.97;;;24.19;59.06
33163;BME280;29282;45.656;11.302;2023-08-06T09:12:36;97284.66;;;24.18;59.05
33163;BME280;29282;45.656;11.302;2023-08-06T09:15:03;97292.19;;;24.18;58.82
33163;BME280;29282;45.656;11.302;2023-08-06T09:17:28;97291.34;;;24.17;58.73
33163;BME280;29282;45.656;11.302;2023-08-06T09:19:54;97300.47;;;24.18;58.93
33163;BME280;29282;45.656;11.302;2023-08-06T09:22:20;97288.59;;;24.17;59.00
33163;BME280;29282;45.656;11.302;2023-08-06T09:24:45;97291.34;;;24.17;58.92
33163;BME280;29282;45.656;11.302;2023-08-06T09:27:12;97296.88;;;24.17;58.91
33163;BME280;29282;45.656;11.302;2023-08-06T09:29:45;97295.72;;;24.18;59.22
33163;BME280;29282;45.656;11.302;2023-08-06T09:32:12;97297.72;;;24.18;58.94
33163;BME280;29282;45.656;11.302;2023-08-06T09:34:45;97308.78;;;24.18;58.71
33163;BME280;29282;45.656;11.302;2023-08-06T09:37:11;97306.78;;;24.18;58.95
33163;BME280;29282;45.656;11.302;2023-08-06T09:39:39;97307.19;;;24.17;58.97
33163;BME280;29282;45.656;11.302;2023-08-06T09:42:08;97319.03;;;24.17;58.76
33163;BME280;29282;45.656;11.302;2023-08-06T09:44:34;97317.09;;;24.18;58.82
33163;BME280;29282;45.656;11.302;2023-08-06T09:47:03;97311.53;;;24.18;59.13
33163;BME280;29282;45.656;11.302;2023-08-06T09:51:58;97309.56;;;24.18;59.14
33163;BME280;29282;45.656;11.302;2023-08-06T09:54:26;97306.00;;;24.18;59.06
33163;BME280;29282;45.656;11.302;2023-08-06T09:56:56;97301.25;;;24.18;58.98
33163;BME280;29282;45.656;11.302;2023-08-06T09:59:25;97303.25;;;24.18;59.04
33163;BME280;29282;45.656;11.302;2023-08-06T10:01:53;97306.00;;;24.18;59.10
33163;BME280;29282;45.656;11.302;2023-08-06T10:04:20;97306.78;;;24.18;58.85
33163;BME280;29282;45.656;11.302;2023-08-06T10:06:48;97303.25;;;24.18;58.81
33163;BME280;29282;45.656;11.302;2023-08-06T10:09:14;97303.25;;;24.18;58.92
33163;BME280;29282;45.656;11.302;2023-08-06T10:11:42;97297.72;;;24.18;59.03
33163;BME280;29282;45.656;11.302;2023-08-06T10:14:28;97306.78;;;24.18;59.00
33163;BME280;29282;45.656;11.302;2023-08-06T10:16:57;97294.94;;;24.18;58.86
33163;BME280;29282;45.656;11.302;2023-08-06T10:19:23;97296.88;;;24.17;59.13
33163;BME280;29282;45.656;11.302;2023-08-06T10:22:09;97296.88;;;24.17;58.81
33163;BME280;29282;45.656;11.302;2023-08-06T10:24:57;97296.09;;;24.17;59.06
33163;BME280;29282;45.656;11.302;2023-08-06T10:27:33;97294.53;;;24.15;58.85
33163;BME280;29282;45.656;11.302;2023-08-06T10:30:28;97292.97;;;24.18;58.99
33163;BME280;29282;45.656;11.302;2023-08-06T10:32:58;97289.41;;;24.18;58.85
33163;BME280;29282;45.656;11.302;2023-08-06T10:35:41;97297.72;;;24.18;58.95
33163;BME280;29282;45.656;11.302;2023-08-06T10:40:40;97293.75;;;24.19;58.94
33163;BME280;29282;45.656;11.302;2023-08-06T10:43:06;97284.66;;;24.18;59.01
33163;BME280;29282;45.656;11.302;2023-08-06T10:45:35;97299.28;;;24.19;59.03
33163;BME280;29282;45.656;11.302;2023-08-06T10:48:01;97301.25;;;24.18;59.17
33163;BME280;29282;45.656;11.302;2023-08-06T10:50:26;97298.50;;;24.18;58.94
33163;BME280;29282;45.656;11.302;2023-08-06T10:52:52;97297.28;;;24.19;58.91
33163;BME280;29282;45.656;11.302;2023-08-06T10:55:28;97292.97;;;24.18;58.94
33163;BME280;29282;45.656;11.302;2023-08-06T10:57:55;97288.59;;;24.17;59.10
33163;BME280;29282;45.656;11.302;2023-08-06T11:00:23;97285.81;;;24.17;59.24
33163;BME280;29282;45.656;11.302;2023-08-06T11:02:52;97296.88;;;24.17;59.22
33163;BME280;29282;45.656;11.302;2023-08-06T11:05:18;97292.56;;;24.16;59.14
33163;BME280;29282;45.656;11.302;2023-08-06T11:07:43;97298.09;;;24.16;58.99
33163;BME280;29282;45.656;11.302;2023-08-06T11:10:11;97298.88;;;24.17;59.20
33163;BME280;29282;45.656;11.302;2023-08-06T11:12:37;97305.19;;;24.17;59.25
33163;BME280;29282;45.656;11.302;2023-08-06T11:15:03;97302.44;;;24.17;59.14
33163;BME280;29282;45.656;11.302;2023-08-06T11:17:31;97301.63;;;24.17;59.03
33163;BME280;29282;45.656;11.302;2023-08-06T11:20:02;97305.19;;;24.17;58.97
33163;BME280;29282;45.656;11.302;2023-08-06T11:22:31;97305.19;;;24.17;59.22
33163;BME280;29282;45.656;11.302;2023-08-06T11:24:56;97296.88;;;24.17;59.10
33163;BME280;29282;45.656;11.302;2023-08-06T11:27:22;97295.31;;;24.16;59.23
33163;BME280;29282;45.656;11.302;2023-08-06T11:29:48;97289.78;;;24.16;59.16
33163;BME280;29282;45.656;11.302;2023-08-06T11:32:13;97290.56;;;24.17;59.15
33163;BME280;29282;45.656;11.302;2023-08-06T11:34:39;97287.03;;;24.16;59.29
33163;BME280;29282;45.656;11.302;2023-08-06T11:37:06;97279.50;;;24.17;59.13
33163;BME280;29282;45.656;11.302;2023-08-06T11:39:37;97289.41;;;24.18;59.21
33163;BME280;29282;45.656;11.302;2023-08-06T11:42:03;97297.72;;;24.18;59.10
33163;BME280;29282;45.656;11.302;2023-08-06T11:44:34;97304.81;;;24.19;59.13
33163;BME280;29282;45.656;11.302;2023-08-06T11:47:02;97296.50;;;24.19;59.24
33163;BME280;29282;45.656;11.302;2023-08-06T11:49:48;97294.53;;;24.19;59.00
33163;BME280;29282;45.656;11.302;2023-08-06T11:57:33;97301.63;;;24.20;59.22
33163;BME280;29282;45.656;11.302;2023-08-06T12:02:31;97309.16;;;24.20;59.23
33163;BME280;29282;45.656;11.302;2023-08-06T12:07:44;97310.34;;;24.19;59.05
33163;BME280;29282;45.656;11.302;2023-08-06T12:10:10;97316.66;;;24.19;59.07
33163;BME280;29282;45.656;11.302;2023-08-06T12:12:36;97311.13;;;24.19;59.13
33163;BME280;29282;45.656;11.302;2023-08-06T12:15:03;97313.13;;;24.19;59.18
33163;BME280;29282;45.656;11.302;2023-08-06T12:17:29;97319.44;;;24.19;58.93
33163;BME280;29282;45.656;11.302;2023-08-06T12:19:54;97315.09;;;24.18;58.98
33163;BME280;29282;45.656;11.302;2023-08-06T12:22:20;97318.66;;;24.19;59.20
33163;BME280;29282;45.656;11.302;2023-08-06T12:24:46;97321.41;;;24.19;59.10
33163;BME280;29282;45.656;11.302;2023-08-06T12:27:13;97329.72;;;24.19;59.12
33163;BME280;29282;45.656;11.302;2023-08-06T12:29:43;97333.69;;;24.18;59.13
33163;BME280;29282;45.656;11.302;2023-08-06T12:32:10;97331.69;;;24.18;59.28
33163;BME280;29282;45.656;11.302;2023-08-06T12:34:35;97331.69;;;24.18;59.04
33163;BME280;29282;45.656;11.302;2023-08-06T12:37:02;97330.91;;;24.18;59.15
33163;BME280;29282;45.656;11.302;2023-08-06T12:39:31;97340.00;;;24.18;59.35
33163;BME280;29282;45.656;11.302;2023-08-06T12:41:58;97328.94;;;24.18;59.37
33163;BME280;29282;45.656;11.302;2023-08-06T12:44:24;97319.84;;;24.18;59.09
33163;BME280;29282;45.656;11.302;2023-08-06T12:46:51;97326.94;;;24.19;59.15
33163;BME280;29282;45.656;11.302;2023-08-06T12:49:17;97321.41;;;24.19;59.23
33163;BME280;29282;45.656;11.302;2023-08-06T12:51:43;97320.63;;;24.18;59.15
33163;BME280;29282;45.656;11.302;2023-08-06T12:54:08;97315.88;;;24.19;59.32
33163;BME280;29282;45.656;11.302;2023-08-06T12:56:34;97310.34;;;24.19;59.10
33163;BME280;29282;45.656;11.302;2023-08-06T12:58:59;97309.16;;;24.20;59.20
33163;BME280;29282;45.656;11.302;2023-08-06T13:01:25;97321.00;;;24.20;59.06
33163;BME280;29282;45.656;11.302;2023-08-06T13:03:51;97321.81;;;24.21;59.11
33163;BME280;29282;45.656;11.302;2023-08-06T13:06:16;97321.00;;;24.20;59.00
33163;BME280;29282;45.656;11.302;2023-08-06T13:08:42;97321.00;;;24.20;59.02